Time;durP1;ratioP1;P1;durP2;ratioP2;P2;SDS_P1;SDS_P2;PMS_P1;PMS_P2;Temp;Humidity;BMP_temperature;BMP_pressure;BME280_temperature;BME280_humidity;BME280_pressure;Samples;Min_cycle;Max_cycle;Signal;HPM_P1;HPM_P2
2021/03/31 00:00:34;;;;;;;;;;;18.10;44.60;;;;;;4347858;33;33192;-72
2021/03/31 00:03:08;;;;;;;;;;;18.10;44.50;;;;;;4333850;33;42123;-72
2021/03/31 00:05:35;;;;;;;;;;;18.00;44.40;;;;;;4347548;33;41626;-72
2021/03/31 00:08:02;;;;;;;;;;;18.00;44.50;;;;;;4334157;33;29265;-72
2021/03/31 00:10:41;;;;;;;;;;;18.00;44.80;;;;;;4334352;33;43687;-72
2021/03/31 00:13:11;;;;;;;;;;;18.00;45.00;;;;;;4348421;33;19997;-72
2021/03/31 00:15:38;;;;;;;;;;;18.00;45.20;;;;;;4335201;33;20025;-72
2021/03/31 00:18:08;;;;;;;;;;;17.90;45.00;;;;;;4347690;33;20028;-72
2021/03/31 00:20:36;;;;;;;;;;;17.90;45.10;;;;;;4348150;33;20006;-72
2021/03/31 00:23:06;;;;;;;;;;;17.90;44.80;;;;;;4346742;33;42898;-72
2021/03/31 00:25:33;;;;;;;;;;;17.80;44.50;;;;;;4335237;33;20013;-72
2021/03/31 00:27:59;;;;;;;;;;;17.80;44.10;;;;;;4347677;33;25545;-72
2021/03/31 00:30:31;;;;;;;;;;;17.80;44.40;;;;;;4347358;33;30038;-72
2021/03/31 00:32:59;;;;;;;;;;;17.80;44.80;;;;;;4334043;33;36086;-72
2021/03/31 00:35:26;;;;;;;;;;;17.80;44.60;;;;;;4347817;33;20001;-72
2021/03/31 00:37:53;;;;;;;;;;;17.80;44.50;;;;;;4347167;33;44706;-72
2021/03/31 00:40:20;;;;;;;;;;;17.80;44.60;;;;;;4346949;33;44686;-72
2021/03/31 00:42:47;;;;;;;;;;;17.80;44.40;;;;;;4334142;33;20028;-72
2021/03/31 00:45:14;;;;;;;;;;;17.70;44.70;;;;;;4333228;33;39126;-72
2021/03/31 00:47:44;;;;;;;;;;;17.70;44.80;;;;;;4346849;33;45113;-72
2021/03/31 00:50:12;;;;;;;;;;;17.70;44.70;;;;;;4346772;33;28390;-72
2021/03/31 00:52:41;;;;;;;;;;;17.70;44.90;;;;;;4321084;33;42897;-72
2021/03/31 00:55:10;;;;;;;;;;;17.70;44.90;;;;;;4347988;33;20061;-72
2021/03/31 00:57:39;;;;;;;;;;;17.70;44.90;;;;;;4348036;33;20057;-72
2021/03/31 01:00:06;;;;;;;;;;;17.70;44.90;;;;;;4334238;33;20415;-72
2021/03/31 01:02:33;;;;;;;;;;;17.70;45.10;;;;;;4346355;33;20410;-71
2021/03/31 01:05:03;;;;;;;;;;;17.70;45.30;;;;;;4347055;33;20402;-71
2021/03/31 01:07:32;;;;;;;;;;;17.70;45.20;;;;;;4347722;33;20021;-72
2021/03/31 01:10:03;;;;;;;;;;;17.60;45.20;;;;;;4334602;33;20339;-72
2021/03/31 01:12:44;;;;;;;;;;;17.60;45.10;;;;;;4347317;33;20015;-72
2021/03/31 01:15:17;;;;;;;;;;;17.60;45.30;;;;;;4346751;33;38839;-72
2021/03/31 01:17:47;;;;;;;;;;;17.60;45.00;;;;;;4346454;33;43634;-72
2021/03/31 01:20:24;;;;;;;;;;;17.60;44.90;;;;;;4332877;33;44061;-72
2021/03/31 01:22:54;;;;;;;;;;;17.60;44.80;;;;;;4346578;33;43367;-72
2021/03/31 01:25:39;;;;;;;;;;;17.60;44.80;;;;;;4347602;33;20028;-72
2021/03/31 01:28:27;;;;;;;;;;;17.50;45.00;;;;;;4333449;33;22855;-72
2021/03/31 01:30:59;;;;;;;;;;;17.50;45.00;;;;;;4346638;33;44272;-72
2021/03/31 01:33:41;;;;;;;;;;;17.40;45.10;;;;;;4322038;33;20043;-71
2021/03/31 01:36:16;;;;;;;;;;;17.40;45.00;;;;;;4347280;33;20383;-72
2021/03/31 01:38:51;;;;;;;;;;;17.30;44.90;;;;;;4347498;33;20011;-72
2021/03/31 01:41:19;;;;;;;;;;;17.30;45.20;;;;;;4334149;33;20016;-72
2021/03/31 01:43:51;;;;;;;;;;;17.30;45.30;;;;;;4333095;33;20390;-72
2021/03/31 01:46:21;;;;;;;;;;;17.20;45.20;;;;;;4346536;33;28109;-72
2021/03/31 01:48:48;;;;;;;;;;;17.30;44.80;;;;;;4346597;33;20072;-72
2021/03/31 01:51:19;;;;;;;;;;;17.20;44.50;;;;;;4346825;33;20015;-71
2021/03/31 01:53:46;;;;;;;;;;;17.20;44.80;;;;;;4347199;33;20381;-72
2021/03/31 01:56:16;;;;;;;;;;;17.20;45.00;;;;;;4333501;33;20019;-71
2021/03/31 01:58:44;;;;;;;;;;;17.20;45.00;;;;;;4347075;33;20403;-71
2021/03/31 02:01:15;;;;;;;;;;;17.20;45.30;;;;;;4345434;33;44060;-72
2021/03/31 02:03:45;;;;;;;;;;;17.10;45.30;;;;;;4331961;33;44857;-72
2021/03/31 02:06:13;;;;;;;;;;;17.10;45.50;;;;;;4346236;33;20043;-72
2021/03/31 02:08:41;;;;;;;;;;;17.10;45.10;;;;;;4332886;33;19997;-72
2021/03/31 02:11:20;;;;;;;;;;;17.10;45.40;;;;;;4332074;33;44495;-72
2021/03/31 02:13:47;;;;;;;;;;;17.10;45.30;;;;;;4345697;33;36756;-72
2021/03/31 02:16:14;;;;;;;;;;;17.10;45.30;;;;;;4345186;33;43635;-71
2021/03/31 02:18:41;;;;;;;;;;;17.10;45.50;;;;;;4345582;33;43370;-71
2021/03/31 02:21:08;;;;;;;;;;;17.10;45.70;;;;;;4332394;33;20147;-71
2021/03/31 02:23:38;;;;;;;;;;;17.10;45.60;;;;;;4346393;33;20013;-71
2021/03/31 02:26:11;;;;;;;;;;;17.00;45.90;;;;;;4345346;33;42772;-72
2021/03/31 02:28:43;;;;;;;;;;;17.00;45.90;;;;;;4345591;33;45022;-72
2021/03/31 02:31:12;;;;;;;;;;;17.00;46.10;;;;;;4345834;33;32322;-72
2021/03/31 02:33:42;;;;;;;;;;;17.00;46.10;;;;;;4345295;33;33509;-72
2021/03/31 02:36:14;;;;;;;;;;;16.90;46.20;;;;;;4332186;33;44608;-72
2021/03/31 02:38:42;;;;;;;;;;;16.90;46.30;;;;;;4346269;33;21345;-72
2021/03/31 02:41:11;;;;;;;;;;;16.90;46.50;;;;;;4332660;33;25017;-72
2021/03/31 02:43:48;;;;;;;;;;;16.80;46.60;;;;;;4344945;33;44145;-72
2021/03/31 02:46:21;;;;;;;;;;;16.80;46.60;;;;;;4332639;33;35992;-72
2021/03/31 02:48:51;;;;;;;;;;;16.80;46.60;;;;;;4345553;33;39271;-72
2021/03/31 02:51:19;;;;;;;;;;;16.80;46.70;;;;;;4345734;33;33485;-72
2021/03/31 02:53:46;;;;;;;;;;;16.70;46.70;;;;;;4331657;33;42301;-71
2021/03/31 02:56:13;;;;;;;;;;;16.70;46.80;;;;;;4345289;33;44321;-71
2021/03/31 02:58:43;;;;;;;;;;;16.70;46.60;;;;;;4344866;33;44333;-71
2021/03/31 03:01:10;;;;;;;;;;;16.70;46.70;;;;;;4345258;33;29703;-71
2021/03/31 03:03:43;;;;;;;;;;;16.70;46.70;;;;;;4332247;33;44097;-71
2021/03/31 03:06:09;;;;;;;;;;;16.70;46.40;;;;;;4345674;33;31528;-72
2021/03/31 03:08:42;;;;;;;;;;;16.70;46.30;;;;;;4332416;33;30332;-72
2021/03/31 03:11:11;;;;;;;;;;;16.70;46.10;;;;;;4345370;33;44068;-72
2021/03/31 03:13:45;;;;;;;;;;;16.80;46.00;;;;;;4332302;33;36956;-72
2021/03/31 03:16:20;;;;;;;;;;;16.80;46.00;;;;;;4345589;33;37840;-71
2021/03/31 03:18:47;;;;;;;;;;;16.80;45.90;;;;;;4345239;33;44690;-72
2021/03/31 03:21:16;;;;;;;;;;;16.80;45.80;;;;;;4331810;33;42228;-72
2021/03/31 03:23:46;;;;;;;;;;;16.80;45.70;;;;;;4332327;33;29846;-72
2021/03/31 03:26:16;;;;;;;;;;;16.80;45.70;;;;;;4332281;33;35088;-72
2021/03/31 03:28:44;;;;;;;;;;;16.80;45.80;;;;;;4348120;33;36744;-72
2021/03/31 03:31:12;;;;;;;;;;;16.80;45.80;;;;;;4347980;33;40828;-72
2021/03/31 03:33:39;;;;;;;;;;;16.70;45.80;;;;;;4347590;33;45149;-72
2021/03/31 03:36:09;;;;;;;;;;;16.70;45.80;;;;;;4347796;33;44016;-72
2021/03/31 03:38:36;;;;;;;;;;;16.70;46.00;;;;;;4334193;33;44315;-71
2021/03/31 03:41:08;;;;;;;;;;;16.70;46.00;;;;;;4334165;33;44690;-71
2021/03/31 03:43:37;;;;;;;;;;;16.60;46.40;;;;;;4335357;33;20014;-71
2021/03/31 03:46:08;;;;;;;;;;;16.60;46.60;;;;;;4349046;33;20043;-71
2021/03/31 03:48:35;;;;;;;;;;;16.60;46.40;;;;;;4348577;33;20063;-72
2021/03/31 03:51:11;;;;;;;;;;;16.60;46.20;;;;;;4348517;33;20072;-72
2021/03/31 03:53:40;;;;;;;;;;;16.50;46.20;;;;;;4347985;33;44321;-72
2021/03/31 03:56:13;;;;;;;;;;;16.60;46.30;;;;;;4347605;33;37683;-72
2021/03/31 03:58:40;;;;;;;;;;;16.50;46.20;;;;;;4334342;33;42936;-72
2021/03/31 04:01:07;;;;;;;;;;;16.50;46.30;;;;;;4346884;33;43341;-72
2021/03/31 04:03:36;;;;;;;;;;;16.50;46.60;;;;;;4348174;33;20013;-72
2021/03/31 04:06:06;;;;;;;;;;;16.50;46.60;;;;;;4348890;33;20023;-72
2021/03/31 04:08:33;;;;;;;;;;;16.50;46.60;;;;;;4347340;33;43651;-72
2021/03/31 04:11:03;;;;;;;;;;;16.50;46.60;;;;;;4348373;33;20390;-71
2021/03/31 04:13:36;;;;;;;;;;;16.40;46.80;;;;;;4348281;33;20432;-71
2021/03/31 04:16:07;;;;;;;;;;;16.40;46.80;;;;;;4347560;33;38436;-71
2021/03/31 04:18:37;;;;;;;;;;;16.40;46.80;;;;;;4348021;33;20021;-71
2021/03/31 04:21:09;;;;;;;;;;;16.30;46.90;;;;;;4348671;33;20008;-71
2021/03/31 04:23:36;;;;;;;;;;;16.30;47.00;;;;;;4348556;33;20038;-72
2021/03/31 04:26:03;;;;;;;;;;;16.30;47.20;;;;;;4347135;33;44611;-72
2021/03/31 04:28:32;;;;;;;;;;;16.30;47.20;;;;;;4348428;33;20001;-72
2021/03/31 04:31:07;;;;;;;;;;;16.30;47.10;;;;;;4334925;33;20021;-72
2021/03/31 04:33:35;;;;;;;;;;;16.30;47.00;;;;;;4347324;33;42961;-72
2021/03/31 04:36:02;;;;;;;;;;;16.30;46.90;;;;;;4334950;33;20017;-72
2021/03/31 04:38:31;;;;;;;;;;;16.20;47.10;;;;;;4348217;33;20077;-71
2021/03/31 04:41:00;;;;;;;;;;;16.20;46.80;;;;;;4347098;33;31000;-71
2021/03/31 04:43:33;;;;;;;;;;;16.20;46.90;;;;;;4335449;33;20023;-71
2021/03/31 04:46:03;;;;;;;;;;;16.20;47.00;;;;;;4333236;33;45169;-71
2021/03/31 04:48:31;;;;;;;;;;;16.20;47.10;;;;;;4346955;33;43281;-71
2021/03/31 04:50:58;;;;;;;;;;;16.20;46.80;;;;;;4347725;33;20092;-71
2021/03/31 04:53:30;;;;;;;;;;;16.20;46.80;;;;;;4346542;33;43377;-72
2021/03/31 04:55:59;;;;;;;;;;;16.20;46.90;;;;;;4346791;33;44316;-71
2021/03/31 04:58:30;;;;;;;;;;;16.20;46.70;;;;;;4347603;33;20350;-71
2021/03/31 05:01:01;;;;;;;;;;;16.20;46.80;;;;;;4347079;33;44270;-72
2021/03/31 05:03:31;;;;;;;;;;;16.20;46.80;;;;;;4332905;33;43672;-72
2021/03/31 05:06:00;;;;;;;;;;;16.20;46.70;;;;;;4332714;33;44555;-72
2021/03/31 05:08:27;;;;;;;;;;;16.20;47.00;;;;;;4332852;33;44432;-72
2021/03/31 05:10:53;;;;;;;;;;;16.10;47.00;;;;;;4346909;33;20023;-72
2021/03/31 05:13:23;;;;;;;;;;;16.10;47.20;;;;;;4347621;33;20005;-72
2021/03/31 05:15:50;;;;;;;;;;;16.10;47.20;;;;;;4346639;33;32123;-71
2021/03/31 05:18:16;;;;;;;;;;;16.00;47.40;;;;;;4332562;33;43615;-71
2021/03/31 05:20:46;;;;;;;;;;;16.00;47.40;;;;;;4321408;33;20032;-73
2021/03/31 05:23:12;;;;;;;;;;;15.90;47.50;;;;;;4346335;33;44820;-74
2021/03/31 05:25:39;;;;;;;;;;;15.90;47.50;;;;;;4346306;33;44603;-74
2021/03/31 05:28:06;;;;;;;;;;;15.90;47.40;;;;;;4346066;33;44664;-74
2021/03/31 05:30:33;;;;;;;;;;;15.90;47.50;;;;;;4332426;33;44101;-74
2021/03/31 05:32:59;;;;;;;;;;;15.90;47.50;;;;;;4346111;33;44431;-74
2021/03/31 05:35:26;;;;;;;;;;;15.90;47.60;;;;;;4346032;33;44306;-74
2021/03/31 05:37:53;;;;;;;;;;;15.90;47.50;;;;;;4332434;33;43363;-74
2021/03/31 05:40:22;;;;;;;;;;;15.80;47.60;;;;;;4346534;33;44364;-74
2021/03/31 05:42:49;;;;;;;;;;;15.80;47.70;;;;;;4332799;33;44699;-74
2021/03/31 05:45:16;;;;;;;;;;;15.80;47.70;;;;;;4346769;33;20008;-74
2021/03/31 05:47:45;;;;;;;;;;;15.80;47.80;;;;;;4345995;33;44355;-74
2021/03/31 05:50:15;;;;;;;;;;;15.80;47.70;;;;;;4332541;33;43359;-74
2021/03/31 05:52:43;;;;;;;;;;;15.80;47.50;;;;;;4346513;33;32001;-74
2021/03/31 05:55:11;;;;;;;;;;;15.90;47.70;;;;;;4332611;33;43624;-74
2021/03/31 05:57:40;;;;;;;;;;;15.80;47.50;;;;;;4345750;33;43684;-74
2021/03/31 06:00:09;;;;;;;;;;;15.90;47.30;;;;;;4345868;33;44167;-74
2021/03/31 06:02:38;;;;;;;;;;;15.90;47.40;;;;;;4346619;33;20027;-74
2021/03/31 06:05:09;;;;;;;;;;;15.90;47.50;;;;;;4346894;33;20425;-71
2021/03/31 06:07:39;;;;;;;;;;;15.90;47.50;;;;;;4345545;33;44713;-71
2021/03/31 06:10:11;;;;;;;;;;;15.90;47.60;;;;;;4332328;33;43672;-71
2021/03/31 06:12:54;;;;;;;;;;;15.90;47.30;;;;;;4333240;33;20102;-71
2021/03/31 06:15:28;;;;;;;;;;;15.90;47.40;;;;;;4346956;33;20023;-73
2021/03/31 06:18:02;;;;;;;;;;;15.90;47.50;;;;;;4333662;33;20019;-74
2021/03/31 06:20:49;;;;;;;;;;;15.80;47.50;;;;;;4333490;33;20072;-74
2021/03/31 06:26:17;;;;;;;;;;;15.80;47.80;;;;;;4345668;33;44047;-74
2021/03/31 06:28:53;;;;;;;;;;;15.80;47.90;;;;;;4333189;33;20374;-74
2021/03/31 06:31:40;;;;;;;;;;;15.80;48.00;;;;;;4345631;33;33529;-74
2021/03/31 06:34:09;;;;;;;;;;;15.80;48.10;;;;;;4345683;33;38198;-74
2021/03/31 06:36:43;;;;;;;;;;;15.80;48.20;;;;;;4345002;33;43704;-74
2021/03/31 06:39:37;;;;;;;;;;;15.80;48.20;;;;;;4319812;33;43703;-74
2021/03/31 06:42:45;;;;;;;;;;;15.80;48.30;;;;;;4345803;33;31778;-74
2021/03/31 06:45:14;;;;;;;;;;;15.80;48.40;;;;;;4346153;33;20398;-74
2021/03/31 06:50:15;;;;;;;;;;;15.80;48.50;;;;;;4346306;33;20009;-74
2021/03/31 06:52:55;;;;;;;;;;;15.70;48.60;;;;;;4331495;33;44535;-74
2021/03/31 06:55:23;;;;;;;;;;;15.80;48.70;;;;;;4345002;33;44196;-74
2021/03/31 06:57:53;;;;;;;;;;;15.80;48.70;;;;;;4332667;33;23266;-74
2021/03/31 07:00:24;;;;;;;;;;;15.80;48.80;;;;;;4332135;33;36423;-74
2021/03/31 07:02:51;;;;;;;;;;;15.80;48.90;;;;;;4346499;33;43552;-74
2021/03/31 07:05:18;;;;;;;;;;;15.80;48.90;;;;;;4346825;33;43023;-74
2021/03/31 07:07:45;;;;;;;;;;;15.80;49.00;;;;;;4346904;33;40878;-74
2021/03/31 07:10:14;;;;;;;;;;;15.90;48.90;;;;;;4347401;33;43261;-74
2021/03/31 07:12:59;;;;;;;;;;;15.90;48.90;;;;;;4346666;33;43677;-74
2021/03/31 07:15:26;;;;;;;;;;;15.90;48.90;;;;;;4333304;33;45052;-74
2021/03/31 07:17:54;;;;;;;;;;;16.00;49.10;;;;;;4333421;33;43522;-74
2021/03/31 07:20:22;;;;;;;;;;;16.00;49.30;;;;;;4347859;33;20025;-74
2021/03/31 07:22:52;;;;;;;;;;;16.00;49.40;;;;;;4348156;33;20466;-74
2021/03/31 07:25:21;;;;;;;;;;;16.00;49.50;;;;;;4334518;33;21783;-74
2021/03/31 07:27:53;;;;;;;;;;;16.00;49.50;;;;;;4334146;33;43676;-74
2021/03/31 07:30:24;;;;;;;;;;;16.00;49.50;;;;;;4347841;33;20013;-74
2021/03/31 07:33:16;;;;;;;;;;;16.10;49.60;;;;;;4335682;33;28999;-74
2021/03/31 07:35:45;;;;;;;;;;;16.10;49.70;;;;;;4347006;33;44152;-74
2021/03/31 07:38:16;;;;;;;;;;;16.10;49.80;;;;;;4347117;33;30962;-74
2021/03/31 07:40:47;;;;;;;;;;;16.10;50.00;;;;;;4347046;33;37856;-74
2021/03/31 07:43:17;;;;;;;;;;;16.10;50.10;;;;;;4347091;33;43111;-74
2021/03/31 07:45:48;;;;;;;;;;;16.10;50.30;;;;;;4333710;33;43811;-74
2021/03/31 07:48:15;;;;;;;;;;;16.10;50.20;;;;;;4347084;33;44298;-74
2021/03/31 07:50:42;;;;;;;;;;;16.10;50.30;;;;;;4333568;33;43358;-74
2021/03/31 07:53:11;;;;;;;;;;;16.20;50.40;;;;;;4333288;33;42404;-74
2021/03/31 07:55:44;;;;;;;;;;;16.10;50.50;;;;;;4346475;33;36969;-74
2021/03/31 07:58:12;;;;;;;;;;;16.20;50.60;;;;;;4321128;33;44000;-74
2021/03/31 08:00:56;;;;;;;;;;;16.20;50.60;;;;;;4347613;33;20068;-74
2021/03/31 08:03:25;;;;;;;;;;;16.20;50.60;;;;;;4347317;33;43397;-74
2021/03/31 08:06:10;;;;;;;;;;;16.20;50.60;;;;;;4347063;33;44621;-74
2021/03/31 08:08:43;;;;;;;;;;;16.20;50.80;;;;;;4348622;33;20452;-74
2021/03/31 08:11:11;;;;;;;;;;;16.20;50.60;;;;;;4348582;33;20023;-74
2021/03/31 08:13:41;;;;;;;;;;;16.30;50.70;;;;;;4334799;33;20499;-74
2021/03/31 08:16:30;;;;;;;;;;;16.30;50.70;;;;;;4346878;33;43619;-74
2021/03/31 08:18:57;;;;;;;;;;;16.30;50.70;;;;;;4335240;33;20000;-74
2021/03/31 08:21:27;;;;;;;;;;;16.30;50.70;;;;;;4335343;33;20422;-74
2021/03/31 08:23:57;;;;;;;;;;;16.40;50.80;;;;;;4334922;33;20425;-74
2021/03/31 08:26:43;;;;;;;;;;;16.40;50.80;;;;;;4334418;33;19993;-74
2021/03/31 08:29:10;;;;;;;;;;;16.40;50.80;;;;;;4334077;33;41717;-74
2021/03/31 08:31:39;;;;;;;;;;;16.40;50.70;;;;;;4333496;33;44274;-74
2021/03/31 08:34:10;;;;;;;;;;;16.40;50.80;;;;;;4333637;33;42234;-74
2021/03/31 08:36:41;;;;;;;;;;;16.50;50.90;;;;;;4347125;33;43667;-74
2021/03/31 08:39:09;;;;;;;;;;;16.50;51.10;;;;;;4320915;33;45236;-74
2021/03/31 08:41:39;;;;;;;;;;;16.50;51.00;;;;;;4346675;33;41114;-74
2021/03/31 08:44:11;;;;;;;;;;;16.60;51.10;;;;;;4347085;33;43588;-74
2021/03/31 08:46:41;;;;;;;;;;;16.60;51.20;;;;;;4334091;33;20734;-73
2021/03/31 08:49:26;;;;;;;;;;;16.60;51.20;;;;;;4322834;33;20341;-73
2021/03/31 08:51:57;;;;;;;;;;;16.70;51.20;;;;;;4334603;33;20031;-74
2021/03/31 08:54:36;;;;;;;;;;;16.70;51.10;;;;;;4347689;33;20016;-74
2021/03/31 08:57:12;;;;;;;;;;;16.80;51.30;;;;;;4348055;33;20006;-74
2021/03/31 08:59:45;;;;;;;;;;;16.80;51.40;;;;;;4334114;33;20020;-74
2021/03/31 09:02:13;;;;;;;;;;;16.80;51.80;;;;;;4334327;33;20017;-73
2021/03/31 09:04:59;;;;;;;;;;;16.90;51.50;;;;;;4347846;33;20027;-73
2021/03/31 09:07:29;;;;;;;;;;;16.90;51.90;;;;;;4334233;33;20019;-73
2021/03/31 09:10:01;;;;;;;;;;;17.00;52.00;;;;;;4347696;33;20027;-73
2021/03/31 09:12:32;;;;;;;;;;;17.00;52.10;;;;;;4322273;33;20415;-73
2021/03/31 09:15:00;;;;;;;;;;;17.10;51.90;;;;;;4333341;33;45036;-73
2021/03/31 09:17:27;;;;;;;;;;;17.10;52.10;;;;;;4346049;33;43377;-73
2021/03/31 09:19:56;;;;;;;;;;;17.20;52.20;;;;;;4333270;33;45699;-73
2021/03/31 09:22:25;;;;;;;;;;;17.30;52.00;;;;;;4347109;33;20005;-73
2021/03/31 09:24:53;;;;;;;;;;;17.20;52.10;;;;;;4333840;33;20362;-73
2021/03/31 09:27:25;;;;;;;;;;;17.30;52.00;;;;;;4346478;33;20076;-73
2021/03/31 09:29:54;;;;;;;;;;;17.40;52.00;;;;;;4347411;33;20005;-73
2021/03/31 09:32:33;;;;;;;;;;;17.40;52.10;;;;;;4333283;33;42171;-73
2021/03/31 09:35:08;;;;;;;;;;;17.50;52.30;;;;;;4347389;33;20324;-73
2021/03/31 09:37:55;;;;;;;;;;;17.50;52.40;;;;;;4334095;33;20430;-73
2021/03/31 09:40:35;;;;;;;;;;;17.50;52.20;;;;;;4345958;33;43680;-73
2021/03/31 09:43:03;;;;;;;;;;;17.60;52.20;;;;;;4346110;33;44471;-73
2021/03/31 09:45:31;;;;;;;;;;;17.60;52.30;;;;;;4346187;33;41418;-73
2021/03/31 09:47:58;;;;;;;;;;;17.60;53.00;;;;;;4347081;33;20047;-73
2021/03/31 09:50:25;;;;;;;;;;;17.70;53.00;;;;;;4345481;33;43513;-73
2021/03/31 09:52:54;;;;;;;;;;;17.70;52.50;;;;;;4345048;32;35862;-73
2021/03/31 09:55:21;;;;;;;;;;;17.80;52.80;;;;;;4346808;33;20005;-73
2021/03/31 09:57:50;;;;;;;;;;;17.80;52.50;;;;;;4347025;33;20008;-73
2021/03/31 10:00:25;;;;;;;;;;;17.90;52.80;;;;;;4347229;33;20065;-73
2021/03/31 10:02:52;;;;;;;;;;;17.90;52.60;;;;;;4321094;33;20006;-73
2021/03/31 10:05:25;;;;;;;;;;;17.90;52.80;;;;;;4333208;33;20015;-73
2021/03/31 10:07:59;;;;;;;;;;;17.90;52.80;;;;;;4333789;33;20001;-73
2021/03/31 10:10:45;;;;;;;;;;;17.90;52.90;;;;;;4346673;33;20386;-73
2021/03/31 10:13:14;;;;;;;;;;;18.00;52.80;;;;;;4346455;33;20008;-73
2021/03/31 10:15:43;;;;;;;;;;;18.00;53.20;;;;;;4321273;33;20001;-73
2021/03/31 10:18:10;;;;;;;;;;;18.00;53.00;;;;;;4346712;33;20072;-73
2021/03/31 10:20:44;;;;;;;;;;;18.10;52.90;;;;;;4345930;33;20445;-73
2021/03/31 10:23:30;;;;;;;;;;;18.10;52.90;;;;;;4346583;33;20001;-73
2021/03/31 10:26:24;;;;;;;;;;;18.10;53.40;;;;;;4334413;33;20009;-73
2021/03/31 10:28:55;;;;;;;;;;;18.20;53.10;;;;;;4345393;33;43234;-73
2021/03/31 10:31:44;;;;;;;;;;;18.20;53.50;;;;;;4345703;33;42341;-73
2021/03/31 10:34:15;;;;;;;;;;;18.30;53.30;;;;;;4345582;33;42743;-74
2021/03/31 10:36:57;;;;;;;;;;;18.40;53.20;;;;;;4332406;33;38061;-71
2021/03/31 10:48:00;;;;;;;;;;;18.50;53.30;;;;;;4334478;33;19994;-71
2021/03/31 10:50:21;;;;;;;;;;;18.50;53.30;;;;;;4346628;33;20025;-71
2021/03/31 10:52:51;;;;;;;;;;;18.50;53.50;;;;;;4333123;33;20001;-71
2021/03/31 10:55:20;;;;;;;;;;;18.50;53.40;;;;;;4346261;33;20017;-71
2021/03/31 10:57:46;;;;;;;;;;;18.60;53.50;;;;;;4333025;33;20463;-71
2021/03/31 11:00:13;;;;;;;;;;;18.60;53.90;;;;;;4346385;33;20415;-71
2021/03/31 11:02:40;;;;;;;;;;;18.60;53.40;;;;;;4345838;33;20507;-71
2021/03/31 11:05:13;;;;;;;;;;;18.60;53.40;;;;;;4346253;33;20432;-71
2021/03/31 11:07:42;;;;;;;;;;;18.60;53.40;;;;;;4346419;33;20027;-71
2021/03/31 11:10:09;;;;;;;;;;;18.50;53.50;;;;;;4346468;33;20027;-71
2021/03/31 11:12:43;;;;;;;;;;;18.60;54.20;;;;;;4333078;33;19994;-73
2021/03/31 11:15:15;;;;;;;;;;;18.60;53.70;;;;;;4346461;33;20064;-73
2021/03/31 11:17:57;;;;;;;;;;;18.60;53.70;;;;;;4345906;33;20025;-73
2021/03/31 11:20:40;;;;;;;;;;;18.60;53.90;;;;;;4346171;33;20005;-74
2021/03/31 11:25:56;;;;;;;;;;;18.60;53.80;;;;;;4332620;33;20011;-71
2021/03/31 11:28:23;;;;;;;;;;;18.70;54.00;;;;;;4346446;33;20010;-71
2021/03/31 11:30:55;;;;;;;;;;;18.70;54.00;;;;;;4345721;33;20005;-71
2021/03/31 11:33:26;;;;;;;;;;;18.70;54.10;;;;;;4332515;33;20440;-71
2021/03/31 11:35:58;;;;;;;;;;;18.70;54.20;;;;;;4333301;33;20407;-71
2021/03/31 11:38:27;;;;;;;;;;;18.70;54.20;;;;;;4346455;33;20027;-71
2021/03/31 11:40:54;;;;;;;;;;;18.80;54.30;;;;;;4332171;33;20020;-71
2021/03/31 11:43:20;;;;;;;;;;;18.80;54.30;;;;;;4345927;33;20016;-71
2021/03/31 11:45:47;;;;;;;;;;;18.90;54.30;;;;;;4345854;33;20374;-71
2021/03/31 11:48:14;;;;;;;;;;;18.90;54.40;;;;;;4333859;33;19997;-71
2021/03/31 11:50:43;;;;;;;;;;;18.90;54.30;;;;;;4349082;33;20009;-71
2021/03/31 11:53:10;;;;;;;;;;;19.00;54.30;;;;;;4348821;33;20064;-71
2021/03/31 11:55:37;;;;;;;;;;;19.00;54.30;;;;;;4348522;33;20014;-71
2021/03/31 11:58:09;;;;;;;;;;;19.00;54.40;;;;;;4348329;33;20008;-71
2021/03/31 12:00:38;;;;;;;;;;;19.10;54.60;;;;;;4348751;33;20002;-71
2021/03/31 12:03:08;;;;;;;;;;;19.10;54.30;;;;;;4348524;33;20017;-71
2021/03/31 12:05:35;;;;;;;;;;;19.10;54.40;;;;;;4335524;33;20012;-71
2021/03/31 12:08:02;;;;;;;;;;;19.20;54.40;;;;;;4348428;33;20048;-71
2021/03/31 12:10:29;;;;;;;;;;;19.20;54.70;;;;;;4348945;33;20033;-71
2021/03/31 12:12:58;;;;;;;;;;;19.20;54.60;;;;;;4335652;33;20028;-71
2021/03/31 12:15:24;;;;;;;;;;;19.30;54.60;;;;;;4347981;33;20021;-71
2021/03/31 12:17:51;;;;;;;;;;;19.30;54.70;;;;;;4334990;33;20013;-71
2021/03/31 12:20:18;;;;;;;;;;;19.30;54.90;;;;;;4333592;33;43327;-71
2021/03/31 12:22:45;;;;;;;;;;;19.30;54.70;;;;;;4346788;33;43570;-71
2021/03/31 12:25:12;;;;;;;;;;;19.40;54.80;;;;;;4333529;33;42555;-71
2021/03/31 12:27:40;;;;;;;;;;;19.40;54.90;;;;;;4346948;33;43622;-71
2021/03/31 12:30:08;;;;;;;;;;;19.40;55.00;;;;;;4333729;33;38738;-71
2021/03/31 12:32:35;;;;;;;;;;;19.50;55.10;;;;;;4347191;33;44495;-71
2021/03/31 12:35:03;;;;;;;;;;;19.50;55.50;;;;;;4348309;33;20015;-71
2021/03/31 12:37:30;;;;;;;;;;;19.60;55.10;;;;;;4333553;33;44829;-71
2021/03/31 12:39:57;;;;;;;;;;;19.60;55.00;;;;;;4346810;33;36826;-71
2021/03/31 12:42:24;;;;;;;;;;;19.70;55.10;;;;;;4333459;33;44925;-71
2021/03/31 12:44:51;;;;;;;;;;;19.70;55.00;;;;;;4333507;33;44674;-71
2021/03/31 12:47:20;;;;;;;;;;;19.70;55.00;;;;;;4348027;33;20005;-71
2021/03/31 12:49:49;;;;;;;;;;;19.80;55.00;;;;;;4333258;33;43296;-71
2021/03/31 12:52:19;;;;;;;;;;;19.80;55.00;;;;;;4333007;33;44105;-72
2021/03/31 12:57:16;;;;;;;;;;;19.80;55.10;;;;;;4346696;33;39743;-72
2021/03/31 12:59:46;;;;;;;;;;;19.90;55.20;;;;;;4345722;33;45044;-72
2021/03/31 13:02:35;;;;;;;;;;;19.90;55.10;;;;;;4347018;33;21092;-72
2021/03/31 13:05:28;;;;;;;;;;;20.00;55.40;;;;;;4348146;33;20068;-72
2021/03/31 13:07:57;;;;;;;;;;;20.10;55.20;;;;;;4333124;33;43401;-72
2021/03/31 13:10:45;;;;;;;;;;;20.10;55.30;;;;;;4334272;33;20053;-72
2021/03/31 13:13:37;;;;;;;;;;;20.20;55.30;;;;;;4347854;33;20012;-72
2021/03/31 13:22:42;;;;;;;;;;;20.20;55.50;;;;;;4347712;33;20057;-72
2021/03/31 13:25:35;;;;;;;;;;;20.30;55.60;;;;;;4332831;33;38541;-72
2021/03/31 13:33:50;;;;;;;;;;;20.40;55.70;;;;;;4340382;33;20463;-72
2021/03/31 13:41:10;;;;;;;;;;;20.50;55.80;;;;;;4347467;33;20416;-72
2021/03/31 13:43:37;;;;;;;;;;;20.60;55.80;;;;;;4346816;33;20017;-72
2021/03/31 13:46:03;;;;;;;;;;;20.60;55.90;;;;;;4347293;33;20061;-72
2021/03/31 13:51:01;;;;;;;;;;;20.70;55.90;;;;;;4333912;33;20005;-72
2021/03/31 13:53:36;;;;;;;;;;;20.70;55.90;;;;;;4333939;33;20052;-72
2021/03/31 13:56:20;;;;;;;;;;;20.80;56.00;;;;;;4333733;33;19997;-72
2021/03/31 13:58:54;;;;;;;;;;;20.80;56.00;;;;;;4334230;33;20017;-72
2021/03/31 14:01:20;;;;;;;;;;;20.90;56.00;;;;;;4333278;33;20488;-72
2021/03/31 14:04:07;;;;;;;;;;;20.80;56.00;;;;;;4347337;33;20017;-72
2021/03/31 14:06:53;;;;;;;;;;;20.90;56.00;;;;;;4333269;33;20065;-73
2021/03/31 14:09:43;;;;;;;;;;;20.90;55.90;;;;;;4347071;33;20391;-72
2021/03/31 14:12:30;;;;;;;;;;;21.00;55.70;;;;;;4347032;33;20021;-72
2021/03/31 14:15:18;;;;;;;;;;;21.10;56.00;;;;;;4322217;33;42840;-72
2021/03/31 14:17:47;;;;;;;;;;;21.10;56.00;;;;;;4334012;33;20382;-72
2021/03/31 14:20:15;;;;;;;;;;;21.20;56.00;;;;;;4345779;33;40409;-72
2021/03/31 14:22:42;;;;;;;;;;;21.20;56.50;;;;;;4333402;33;20393;-72
2021/03/31 14:25:10;;;;;;;;;;;21.20;55.90;;;;;;4332415;33;40216;-72
2021/03/31 14:27:37;;;;;;;;;;;21.20;55.70;;;;;;4345501;33;43413;-72
2021/03/31 14:30:08;;;;;;;;;;;21.30;55.50;;;;;;4345507;33;44405;-72
2021/03/31 14:32:36;;;;;;;;;;;21.30;55.60;;;;;;4345453;33;44336;-73
2021/03/31 14:35:25;;;;;;;;;;;21.40;55.70;;;;;;4345662;33;31874;-73
2021/03/31 14:38:14;;;;;;;;;;;21.40;55.70;;;;;;4335668;33;20009;-73
2021/03/31 14:40:46;;;;;;;;;;;21.50;55.60;;;;;;4346040;33;20110;-73
2021/03/31 14:43:35;;;;;;;;;;;21.50;55.40;;;;;;4346795;33;20051;-73
2021/03/31 14:46:02;;;;;;;;;;;21.60;55.50;;;;;;4346587;33;20009;-73
2021/03/31 14:48:29;;;;;;;;;;;21.60;55.40;;;;;;4346588;33;20001;-73
2021/03/31 14:50:56;;;;;;;;;;;21.60;55.20;;;;;;4346700;33;20019;-73
2021/03/31 15:01:37;;;;;;;;;;;21.80;54.70;;;;;;4332719;33;20008;-73
2021/03/31 15:04:04;;;;;;;;;;;21.80;54.80;;;;;;4346509;33;20015;-73
2021/03/31 15:06:31;;;;;;;;;;;21.80;54.60;;;;;;4332589;33;20023;-73
2021/03/31 15:08:58;;;;;;;;;;;21.90;54.60;;;;;;4332928;33;20013;-73
2021/03/31 15:11:25;;;;;;;;;;;21.90;54.40;;;;;;4346530;33;20009;-73
2021/03/31 15:13:58;;;;;;;;;;;21.90;54.40;;;;;;4346345;33;20027;-73
2021/03/31 15:16:49;;;;;;;;;;;22.00;54.30;;;;;;4346646;33;20027;-75
2021/03/31 15:19:28;;;;;;;;;;;22.00;54.20;;;;;;4321015;33;20065;-76
2021/03/31 15:24:53;;;;;;;;;;;22.00;53.80;;;;;;4335812;33;20001;-75
2021/03/31 15:27:47;;;;;;;;;;;22.10;53.80;;;;;;4325810;33;19998;-75
2021/03/31 15:30:40;;;;;;;;;;;22.10;53.50;;;;;;4325572;33;20373;-75